Time;durP1;ratioP1;P1;durP2;ratioP2;P2;SDS_P1;SDS_P2;PMS_P1;PMS_P2;Temp;Humidity;BMP_temperature;BMP_pressure;BME280_temperature;BME280_humidity;BME280_pressure;Samples;Min_cycle;Max_cycle;Signal;HPM_P1;HPM_P2
2024/02/20 00:02:11;;;;;;;20.67;8.70;;;;;;;12.00;95.96;101635.13;5031953;27;97620;-80
2024/02/20 00:04:40;;;;;;;16.88;8.32;;;;;;;12.58;93.23;101647.59;5029839;27;99664;-77
2024/02/20 00:07:07;;;;;;;22.92;8.00;;;;;;;12.27;92.99;101643.16;5032043;27;96843;-77
2024/02/20 00:09:35;;;;;;;17.90;8.70;;;;;;;12.34;93.10;101634.13;5030073;27;97926;-77
2024/02/20 00:12:01;;;;;;;20.63;8.85;;;;;;;12.31;93.91;101641.31;5032317;27;99137;-76
2024/02/20 00:14:27;;;;;;;23.48;8.80;;;;;;;12.64;92.54;101642.13;5023116;27;101446;-77
2024/02/20 00:16:54;;;;;;;21.83;8.10;;;;;;;12.72;91.05;101634.81;5026728;27;98866;-76
2024/02/20 00:19:21;;;;;;;14.32;8.40;;;;;;;12.47;92.09;101639.09;5026388;27;97551;-77
2024/02/20 00:21:47;;;;;;;17.45;8.55;;;;;;;12.63;91.16;101641.25;5033874;27;99865;-77
2024/02/20 00:24:14;;;;;;;14.57;8.23;;;;;;;12.10;93.33;101634.81;5024152;27;98613;-77
2024/02/20 00:26:44;;;;;;;18.00;8.15;;;;;;;12.22;93.65;101645.09;5034508;27;96910;-77
2024/02/20 00:29:11;;;;;;;17.13;8.15;;;;;;;12.51;91.69;101646.03;5025393;27;97302;-77
2024/02/20 00:31:37;;;;;;;15.93;8.18;;;;;;;12.50;91.92;101639.88;5037021;27;98147;-77
2024/02/20 00:34:04;;;;;;;22.30;8.52;;;;;;;12.42;92.25;101651.59;5027783;27;98815;-77
2024/02/20 00:36:30;;;;;;;18.10;7.63;;;;;;;12.42;91.91;101651.59;5031382;27;97852;-77
2024/02/20 00:38:56;;;;;;;15.27;8.20;;;;;;;12.60;91.22;101636.00;5034277;27;96990;-77
2024/02/20 00:41:24;;;;;;;16.88;8.70;;;;;;;12.30;92.36;101647.53;5035583;27;99329;-76
2024/02/20 00:43:51;;;;;;;15.15;8.05;;;;;;;12.19;93.68;101644.31;5025237;27;99264;-76
2024/02/20 00:46:19;;;;;;;18.17;8.05;;;;;;;12.33;92.39;101658.06;5030054;27;96796;-77
2024/02/20 00:48:46;;;;;;;15.57;7.80;;;;;;;12.53;91.66;101644.22;5025057;27;97341;-77
2024/02/20 00:51:16;;;;;;;18.23;9.20;;;;;;;12.38;91.67;101657.00;5026478;27;99819;-77
2024/02/20 00:53:42;;;;;;;19.02;8.18;;;;;;;12.19;93.03;101654.91;5029490;27;99085;-77
2024/02/20 00:56:09;;;;;;;17.77;7.68;;;;;;;12.15;93.36;101648.81;5027226;27;96978;-76
2024/02/20 00:58:35;;;;;;;15.20;8.15;;;;;;;12.63;91.30;101651.84;5026907;27;96783;-77
2024/02/20 01:01:04;;;;;;;17.35;8.00;;;;;;;12.52;91.44;101647.78;5031085;27;100764;-76
2024/02/20 01:03:30;;;;;;;14.88;7.88;;;;;;;12.38;92.24;101650.81;5028152;27;98859;-70
2024/02/20 01:05:57;;;;;;;14.00;7.63;;;;;;;12.18;93.28;101643.44;5028154;27;98616;-69
2024/02/20 01:08:23;;;;;;;18.05;7.78;;;;;;;12.41;91.89;101645.41;5029454;27;96945;-70
2024/02/20 01:10:54;;;;;;;13.20;8.10;;;;;;;12.55;91.45;101642.38;5036887;27;99277;-71
2024/02/20 01:13:20;;;;;;;17.17;7.70;;;;;;;12.07;93.10;101653.47;5024793;27;98405;-69
2024/02/20 01:15:47;;;;;;;13.07;7.07;;;;;;;12.19;93.18;101646.97;5027036;27;97872;-68
2024/02/20 01:18:14;;;;;;;17.15;7.30;;;;;;;12.25;92.18;101644.13;5027304;27;97627;-68
2024/02/20 01:20:41;;;;;;;12.95;7.60;;;;;;;12.18;92.71;101653.16;5020876;27;97233;-69
2024/02/20 01:23:07;;;;;;;20.38;7.60;;;;;;;12.05;93.59;101649.13;5030014;27;98037;-69
2024/02/20 01:25:34;;;;;;;14.32;6.93;;;;;;;12.08;93.21;101647.25;5033002;27;96722;-69
2024/02/20 01:28:01;;;;;;;11.10;6.10;;;;;;;11.87;93.89;101659.31;5027839;27;98618;-67
2024/02/20 01:30:27;;;;;;;14.32;7.57;;;;;;;11.95;94.21;101649.34;5026353;27;99014;-67
2024/02/20 01:32:57;;;;;;;12.70;7.05;;;;;;;12.16;93.80;101645.25;5030671;27;98963;-68
2024/02/20 01:35:25;;;;;;;15.55;5.30;;;;;;;12.24;92.08;101639.75;5032454;27;96752;-68
2024/02/20 01:37:54;;;;;;;13.18;6.45;;;;;;;12.32;91.42;101638.63;5028015;27;97360;-70
2024/02/20 01:40:21;;;;;;;15.73;6.65;;;;;;;12.01;92.77;101637.75;5024172;27;101882;-70
2024/02/20 01:42:55;;;;;;;11.52;7.05;;;;;;;11.93;93.78;101640.59;5025263;27;98726;-68
2024/02/20 01:45:22;;;;;;;15.60;6.65;;;;;;;11.93;93.60;101643.25;5032922;27;96862;-67
2024/02/20 01:47:48;;;;;;;13.00;6.93;;;;;;;11.99;93.73;101636.91;5031926;27;97115;-68
2024/02/20 01:50:15;;;;;;;15.55;7.22;;;;;;;11.92;93.73;101645.94;5024772;27;99260;-69
2024/02/20 01:52:43;;;;;;;13.98;6.70;;;;;;;11.95;93.69;101641.41;5029692;27;97410;-68
2024/02/20 01:55:11;;;;;;;15.02;7.50;;;;;;;12.14;93.05;101638.28;5029381;27;96815;-68
2024/02/20 01:57:38;;;;;;;16.70;7.10;;;;;;;12.39;91.54;101641.97;5032210;27;96838;-68
2024/02/20 02:00:06;;;;;;;14.48;7.20;;;;;;;11.83;93.42;101648.81;5033702;27;99110;-68
2024/02/20 02:02:33;;;;;;;17.42;6.70;;;;;;;11.88;94.01;101645.13;5031338;27;101054;-68
2024/02/20 02:04:59;;;;;;;10.95;6.30;;;;;;;11.90;93.07;101637.16;5025694;27;96847;-67
2024/02/20 02:07:26;;;;;;;15.63;7.07;;;;;;;11.90;93.37;101638.03;5030249;27;97205;-69
2024/02/20 02:09:54;;;;;;;17.98;6.68;;;;;;;12.00;92.65;101633.34;5030583;27;98390;-69
2024/02/20 02:12:21;;;;;;;15.27;6.35;;;;;;;12.16;91.72;101645.25;5027168;27;98263;-69
2024/02/20 02:14:47;;;;;;;12.35;6.25;;;;;;;12.25;90.83;101634.41;5028405;27;97250;-68
2024/02/20 02:17:16;;;;;;;12.25;5.90;;;;;;;12.29;90.70;101637.81;5031386;27;97039;-69
2024/02/20 02:19:43;;;;;;;11.30;6.53;;;;;;;12.41;89.87;101628.66;5022352;27;102275;-68
2024/02/20 02:22:09;;;;;;;13.50;6.32;;;;;;;12.20;90.88;101638.97;5035065;27;98856;-68
2024/02/20 02:24:36;;;;;;;13.20;6.68;;;;;;;12.47;90.22;101628.50;5024985;27;97623;-69
2024/02/20 02:27:05;;;;;;;11.07;6.18;;;;;;;12.47;89.63;101636.44;5035726;27;96836;-69
2024/02/20 02:29:32;;;;;;;12.02;5.47;;;;;;;12.37;89.98;101634.06;5023795;27;99415;-68
2024/02/20 02:31:59;;;;;;;13.32;6.07;;;;;;;12.87;88.11;101636.97;5030905;27;98743;-68
2024/02/20 02:34:27;;;;;;;11.77;5.88;;;;;;;12.76;87.16;101629.34;5024274;27;96803;-67
2024/02/20 02:36:54;;;;;;;10.98;5.38;;;;;;;12.33;89.30;101635.06;5027290;27;96934;-67
2024/02/20 02:39:22;;;;;;;10.05;5.47;;;;;;;12.53;87.87;101633.63;5021815;27;98296;-67
2024/02/20 02:41:50;;;;;;;10.57;4.88;;;;;;;11.96;90.44;101642.28;5024007;27;98876;-67
2024/02/20 02:44:18;;;;;;;11.73;5.18;;;;;;;12.01;91.02;101642.19;5029191;27;97365;-68
2024/02/20 02:46:44;;;;;;;8.68;4.88;;;;;;;11.63;92.15;101648.41;5025513;27;98825;-68
2024/02/20 02:49:11;;;;;;;12.80;4.78;;;;;;;12.16;90.22;101647.91;5027196;27;97703;-68
2024/02/20 02:51:37;;;;;;;10.73;5.22;;;;;;;12.29;89.46;101646.66;5027692;27;98635;-68
2024/02/20 02:54:04;;;;;;;12.23;5.18;;;;;;;12.50;87.66;101645.16;5023794;27;97375;-68
2024/02/20 02:56:31;;;;;;;12.38;4.90;;;;;;;11.95;89.15;101645.84;5033172;27;100442;-68
2024/02/20 02:58:59;;;;;;;11.10;4.72;;;;;;;12.16;89.46;101637.31;5029488;27;99369;-69
2024/02/20 03:01:27;;;;;;;9.70;4.55;;;;;;;12.46;87.84;101645.31;5031321;27;98831;-68
2024/02/20 03:03:53;;;;;;;11.55;4.45;;;;;;;12.48;87.30;101646.13;5024538;27;97749;-69
2024/02/20 03:06:19;;;;;;;9.50;4.45;;;;;;;12.04;88.96;101644.72;5027790;27;96748;-68
2024/02/20 03:08:47;;;;;;;9.57;4.47;;;;;;;12.13;89.74;101641.84;5020493;27;99306;-68
2024/02/20 03:11:14;;;;;;;8.32;4.50;;;;;;;12.04;89.69;101642.94;5028631;27;97584;-68
2024/02/20 03:13:40;;;;;;;12.13;4.43;;;;;;;12.01;89.06;101651.00;5022687;27;96692;-68
2024/02/20 03:16:08;;;;;;;8.65;3.83;;;;;;;11.77;90.51;101647.19;5026756;27;97115;-68
2024/02/20 03:18:38;;;;;;;7.75;3.83;;;;;;;11.47;92.13;101653.25;5029411;27;99055;-68
2024/02/20 03:21:06;;;;;;;9.48;3.72;;;;;;;11.26;93.63;101659.06;5025937;27;99661;-69
2024/02/20 03:23:33;;;;;;;10.65;4.03;;;;;;;11.45;92.43;101653.28;5031891;27;96891;-69
2024/02/20 03:26:01;;;;;;;7.97;3.53;;;;;;;11.71;91.33;101657.03;5021829;27;97012;-70
2024/02/20 03:28:29;;;;;;;7.13;3.28;;;;;;;12.20;89.18;101657.53;5031300;27;98919;-69
2024/02/20 03:30:55;;;;;;;6.10;3.85;;;;;;;12.49;87.13;101667.28;5026677;27;99615;-69
2024/02/20 03:33:23;;;;;;;8.63;3.30;;;;;;;12.31;86.74;101659.88;5026912;27;97021;-69
2024/02/20 03:35:52;;;;;;;6.45;3.28;;;;;;;12.11;87.95;101659.53;5022447;27;96867;-69
2024/02/20 03:38:20;;;;;;;10.50;3.15;;;;;;;11.81;89.69;101667.41;5032489;27;99727;-69
2024/02/20 03:40:46;;;;;;;4.88;2.80;;;;;;;11.17;92.73;101665.44;5019228;27;99780;-69
2024/02/20 03:43:13;;;;;;;7.18;3.05;;;;;;;11.78;90.90;101666.59;5028939;27;96897;-69
2024/02/20 03:45:39;;;;;;;7.07;2.30;;;;;;;11.38;91.55;101667.56;5024367;27;97260;-69
2024/02/20 03:48:07;;;;;;;9.05;3.03;;;;;;;11.40;92.20;101673.69;5032571;27;98812;-69
2024/02/20 03:50:33;;;;;;;5.32;2.50;;;;;;;11.53;90.55;101675.16;5029654;27;98938;-69
2024/02/20 03:53:01;;;;;;;4.40;2.38;;;;;;;11.32;92.17;101680.94;5025090;27;97081;-69
2024/02/20 03:55:28;;;;;;;5.80;2.50;;;;;;;11.51;91.76;101676.94;5030833;27;97119;-69
2024/02/20 03:57:54;;;;;;;7.35;2.35;;;;;;;11.81;89.29;101674.47;5031865;27;103077;-69
2024/02/20 04:00:24;;;;;;;6.55;2.40;;;;;;;11.93;88.50;101684.75;5035672;27;99060;-70
2024/02/20 04:02:53;;;;;;;7.80;2.00;;;;;;;11.40;88.97;101683.41;5033336;27;96991;-70
2024/02/20 04:05:19;;;;;;;6.53;2.33;;;;;;;11.58;87.51;101694.41;5028131;27;97122;-70
2024/02/20 04:07:46;;;;;;;3.78;1.40;;;;;;;11.63;87.53;101685.47;5028389;27;98181;-71
2024/02/20 04:10:15;;;;;;;3.55;1.40;;;;;;;11.59;86.54;101685.59;5033434;27;99120;-69
2024/02/20 04:12:41;;;;;;;2.08;1.30;;;;;;;12.09;84.77;101691.38;5029800;27;97360;-70
2024/02/20 04:15:09;;;;;;;3.75;1.63;;;;;;;12.41;83.02;101693.13;5029970;27;96763;-70
2024/02/20 04:17:36;;;;;;;5.75;1.80;;;;;;;12.46;82.22;101691.25;5029898;27;98939;-70
2024/02/20 04:20:05;;;;;;;2.15;1.33;;;;;;;12.38;81.95;101690.59;5035519;27;102722;-70
2024/02/20 04:22:31;;;;;;;6.15;1.70;;;;;;;12.43;82.71;101699.28;5030891;27;97383;-69
2024/02/20 04:24:58;;;;;;;5.45;1.40;;;;;;;11.83;83.99;101691.19;5033842;27;98762;-69
2024/02/20 04:27:26;;;;;;;1.60;1.40;;;;;;;11.46;87.03;101700.03;5032079;27;98250;-70
2024/02/20 04:29:53;;;;;;;3.95;1.40;;;;;;;12.02;84.96;101702.16;5034304;27;98792;-69
2024/02/20 04:32:20;;;;;;;3.95;1.42;;;;;;;12.26;82.84;101712.13;5030970;27;96794;-69
2024/02/20 04:34:47;;;;;;;5.85;1.60;;;;;;;11.97;83.92;101708.47;5029026;27;98921;-70
2024/02/20 04:37:14;;;;;;;2.13;1.30;;;;;;;12.08;83.74;101713.47;5029631;27;99231;-70
2024/02/20 04:39:43;;;;;;;4.38;1.38;;;;;;;12.16;83.24;101713.28;5027382;27;98887;-69
2024/02/20 04:42:09;;;;;;;4.72;1.45;;;;;;;12.42;82.31;101712.56;5030096;27;96786;-69
2024/02/20 04:44:37;;;;;;;3.58;2.03;;;;;;;12.43;81.70;101717.81;5029467;27;97398;-69
2024/02/20 04:47:04;;;;;;;4.50;1.85;;;;;;;11.98;83.57;101726.09;5029877;27;99976;-68
2024/02/20 04:49:30;;;;;;;3.20;1.63;;;;;;;11.90;85.14;101719.25;5023052;27;99059;-68
2024/02/20 04:51:57;;;;;;;2.60;1.23;;;;;;;11.72;86.06;101719.69;5026118;27;96793;-68
2024/02/20 04:54:22;;;;;;;3.40;1.15;;;;;;;11.57;86.89;101721.78;5028648;27;98314;-68
2024/02/20 04:56:48;;;;;;;;;;;;;;;11.74;86.44;101720.56;5024539;27;100237;-68
2024/02/20 04:59:15;;;;;;;4.78;1.50;;;;;;;12.01;85.46;101724.28;5025217;27;97986;-68
2024/02/20 05:01:43;;;;;;;5.43;1.60;;;;;;;12.03;85.01;101722.44;5030125;27;97368;-68
2024/02/20 05:04:10;;;;;;;3.47;1.40;;;;;;;12.29;84.56;101730.59;5025104;27;97400;-68
2024/02/20 05:06:36;;;;;;;2.53;1.30;;;;;;;12.13;83.43;101735.44;5027531;27;99245;-68
2024/02/20 05:09:03;;;;;;;4.88;1.13;;;;;;;12.13;83.77;101729.25;5032782;27;98334;-67
2024/02/20 05:11:29;;;;;;;3.17;1.20;;;;;;;12.10;84.38;101729.34;5031673;27;96781;-67
2024/02/20 05:13:56;;;;;;;7.97;1.50;;;;;;;12.10;84.87;101739.94;5029678;27;97244;-67
2024/02/20 05:16:22;;;;;;;3.17;0.80;;;;;;;11.47;84.38;101735.28;5031114;27;98343;-67
2024/02/20 05:18:50;;;;;;;4.68;0.70;;;;;;;11.14;85.35;101734.28;5032359;27;98868;-70
2024/02/20 05:21:17;;;;;;;3.25;0.82;;;;;;;10.94;86.93;101731.22;5034903;27;97001;-69
2024/02/20 05:23:43;;;;;;;2.90;0.60;;;;;;;11.51;84.02;101740.47;5025796;27;96880;-69
2024/02/20 05:26:09;;;;;;;1.75;0.70;;;;;;;11.75;82.02;101735.53;5035319;27;98953;-69
2024/02/20 05:28:36;;;;;;;4.55;0.82;;;;;;;12.01;80.38;101735.75;5022922;27;102744;-69
2024/02/20 05:31:21;;;;;;;2.33;0.60;;;;;;;12.00;79.69;101744.63;5028088;27;97202;-68
2024/02/20 05:33:47;;;;;;;2.28;0.80;;;;;;;11.77;80.78;101744.31;5027855;27;97376;-68
2024/02/20 05:36:15;;;;;;;1.70;0.80;;;;;;;11.90;80.02;101749.25;5027908;27;99251;-69
2024/02/20 05:38:41;;;;;;;2.00;1.00;;;;;;;11.64;81.53;101748.13;5023430;27;101925;-69
2024/02/20 05:41:07;;;;;;;2.35;0.68;;;;;;;11.05;83.84;101755.63;5028908;27;97687;-69
2024/02/20 05:43:34;;;;;;;3.90;0.82;;;;;;;10.96;84.71;101755.84;5028419;27;96733;-69
2024/02/20 05:46:00;;;;;;;4.55;0.77;;;;;;;11.22;83.46;101760.59;5022385;27;98884;-70
2024/02/20 05:48:26;;;;;;;5.35;0.90;;;;;;;11.31;83.90;101763.00;5031642;27;98702;-69
2024/02/20 05:50:53;;;;;;;2.58;1.00;;;;;;;11.57;82.33;101760.63;5021492;27;97171;-70
2024/02/20 05:53:20;;;;;;;4.63;1.58;;;;;;;11.45;81.65;101760.91;5025359;27;96833;-70
2024/02/20 05:55:47;;;;;;;4.28;0.70;;;;;;;11.00;83.96;101766.31;5026455;27;99031;-76
2024/02/20 05:58:13;;;;;;;3.22;0.90;;;;;;;11.40;82.81;101773.41;5019853;27;98970;-75
2024/02/20 06:00:39;;;;;;;4.97;1.23;;;;;;;11.37;82.72;101763.72;5030586;27;96709;-76
2024/02/20 06:03:06;;;;;;;4.10;1.00;;;;;;;11.23;83.29;101776.41;5020706;27;97849;-76
2024/02/20 06:05:32;;;;;;;3.05;0.60;;;;;;;11.41;82.51;101781.31;5026258;27;97829;-77
2024/02/20 06:08:01;;;;;;;6.85;1.30;;;;;;;11.40;82.49;101784.84;5027995;27;99244;-76
2024/02/20 06:10:28;;;;;;;4.25;0.95;;;;;;;11.07;85.02;101788.22;5035697;27;97288;-76
2024/02/20 06:12:55;;;;;;;5.13;0.77;;;;;;;11.01;85.80;101801.59;5020212;27;97619;-76
2024/02/20 06:15:22;;;;;;;5.78;1.05;;;;;;;10.88;86.06;101800.09;5025920;27;98965;-75
2024/02/20 06:17:49;;;;;;;3.88;1.50;;;;;;;10.68;88.72;101798.72;5028518;27;101887;-76
2024/02/20 06:20:16;;;;;;;1.35;0.80;;;;;;;10.47;89.46;101793.81;5030155;27;97112;-75
2024/02/20 06:22:42;;;;;;;3.95;1.00;;;;;;;10.84;88.19;101798.38;5022072;27;97384;-75
2024/02/20 06:25:09;;;;;;;2.25;1.13;;;;;;;10.90;87.88;101803.56;5027989;27;98922;-76
2024/02/20 06:27:38;;;;;;;3.15;1.08;;;;;;;11.12;86.59;101811.03;5028232;27;100748;-76
2024/02/20 06:30:08;;;;;;;1.98;0.70;;;;;;;11.35;85.33;101807.03;5026140;27;100068;-75
2024/02/20 06:32:34;;;;;;;2.47;0.88;;;;;;;11.24;85.56;101807.25;5036114;27;98102;-76
2024/02/20 06:35:01;;;;;;;2.35;0.70;;;;;;;11.15;86.82;101816.28;5025508;27;101695;-77
2024/02/20 06:37:27;;;;;;;5.68;1.65;;;;;;;11.43;86.92;101810.34;5033191;27;99085;-77
2024/02/20 06:39:54;;;;;;;1.05;0.68;;;;;;;11.24;88.82;101807.25;5026100;27;96872;-76
2024/02/20 06:42:21;;;;;;;2.55;0.70;;;;;;;11.71;87.16;101808.84;5028590;27;96924;-75
2024/02/20 06:44:48;;;;;;;2.28;0.80;;;;;;;11.74;86.99;101813.25;5026835;27;99778;-77
2024/02/20 06:47:15;;;;;;;1.70;1.00;;;;;;;12.01;85.95;101817.88;5035124;27;98893;-77
2024/02/20 06:49:41;;;;;;;3.28;1.20;;;;;;;11.45;88.21;101833.25;5032731;27;97334;-75
2024/02/20 06:52:08;;;;;;;0.95;0.77;;;;;;;11.43;88.98;101827.09;5036840;27;97021;-76
2024/02/20 06:54:37;;;;;;;6.03;2.38;;;;;;;11.44;89.22;101830.63;5027872;27;98920;-76
2024/02/20 06:57:04;;;;;;;4.95;1.20;;;;;;;11.51;89.08;101833.13;5030121;27;98837;-77
2024/02/20 06:59:30;;;;;;;6.07;1.52;;;;;;;11.37;88.53;101832.53;5028942;27;97092;-77
2024/02/20 07:01:58;;;;;;;2.65;1.38;;;;;;;11.22;90.17;101837.31;5024785;27;98609;-76
2024/02/20 07:04:24;;;;;;;4.28;0.93;;;;;;;11.55;88.66;101841.88;5020987;27;99030;-75
2024/02/20 07:06:50;;;;;;;2.85;1.00;;;;;;;11.80;87.10;101851.03;5018684;27;98617;-76
2024/02/20 07:09:17;;;;;;;1.90;1.08;;;;;;;11.95;86.47;101841.84;5021627;27;98666;-74
2024/02/20 07:11:45;;;;;;;2.90;1.15;;;;;;;12.33;85.16;101856.81;5020683;27;97928;-75
2024/02/20 07:14:12;;;;;;;2.25;1.00;;;;;;;12.49;83.32;101854.63;5022647;27;99452;-75
2024/02/20 07:16:39;;;;;;;2.95;1.05;;;;;;;12.27;83.33;101852.50;5024076;27;99426;-75
2024/02/20 07:19:06;;;;;;;2.22;0.68;;;;;;;12.24;83.70;101855.25;5025404;27;96891;-75
2024/02/20 07:21:33;;;;;;;2.20;1.20;;;;;;;12.22;83.18;101851.78;5022872;27;96955;-75
2024/02/20 07:23:59;;;;;;;2.42;1.35;;;;;;;11.95;85.17;101863.03;5018043;27;99550;-75
2024/02/20 07:26:27;;;;;;;7.07;1.50;;;;;;;11.91;85.23;101861.38;5018597;27;98764;-75
2024/02/20 07:28:53;;;;;;;3.42;1.33;;;;;;;11.95;85.06;101863.03;5024803;27;97262;-74
2024/02/20 07:31:21;;;;;;;3.00;1.10;;;;;;;12.22;84.47;101875.63;5027011;27;97587;-73
2024/02/20 07:33:48;;;;;;;4.75;1.73;;;;;;;12.16;84.60;101867.81;5026846;27;101177;-74
2024/02/20 07:36:16;;;;;;;3.47;1.10;;;;;;;12.33;83.64;101875.38;5026314;27;99302;-74
2024/02/20 07:38:43;;;;;;;9.73;3.15;;;;;;;12.52;83.87;101876.66;5026885;27;97216;-74
2024/02/20 07:41:09;;;;;;;4.25;2.15;;;;;;;12.55;81.94;101870.38;5025504;27;97941;-75
2024/02/20 07:43:36;;;;;;;4.53;1.30;;;;;;;12.14;84.41;101874.94;5032949;27;98995;-77
2024/02/20 07:46:02;;;;;;;2.97;1.40;;;;;;;12.41;83.25;101877.81;5030766;27;98983;-77
2024/02/20 07:48:29;;;;;;;6.18;1.58;;;;;;;12.00;84.42;101882.34;5026811;27;98445;-76
2024/02/20 07:50:55;;;;;;;2.97;1.30;;;;;;;11.85;85.71;101883.56;5027098;27;97760;-74
2024/02/20 07:53:23;;;;;;;4.60;1.23;;;;;;;12.27;84.12;101875.53;5023378;27;99355;-75
2024/02/20 07:55:49;;;;;;;1.85;1.58;;;;;;;12.17;83.84;101880.16;5026771;27;101505;-75
2024/02/20 07:58:16;;;;;;;3.88;1.70;;;;;;;12.23;83.66;101889.75;5020110;27;98778;-76
2024/02/20 08:00:42;;;;;;;4.35;1.30;;;;;;;12.11;83.47;101882.97;5025669;27;97489;-76
2024/02/20 08:03:09;;;;;;;4.68;1.92;;;;;;;12.11;83.70;101880.31;5022255;27;99072;-77
2024/02/20 08:05:35;;;;;;;2.40;1.40;;;;;;;12.69;81.59;101887.69;5027608;27;98821;-70
2024/02/20 08:08:02;;;;;;;3.92;1.15;;;;;;;12.67;80.65;101880.66;5027264;27;97540;-70
2024/02/20 08:10:29;;;;;;;6.18;1.30;;;;;;;12.69;81.08;101886.81;5025194;27;96784;-70
2024/02/20 08:12:56;;;;;;;10.95;2.10;;;;;;;12.58;81.22;101883.56;5022305;27;97947;-69
2024/02/20 08:15:22;;;;;;;5.57;1.75;;;;;;;12.85;79.82;101890.81;5019400;27;99662;-70
2024/02/20 08:17:50;;;;;;;11.10;1.60;;;;;;;12.69;79.68;101900.94;5019707;27;97373;-70
2024/02/20 08:20:16;;;;;;;5.10;1.35;;;;;;;12.43;80.48;101891.91;5024493;27;97118;-70
2024/02/20 08:22:43;;;;;;;6.35;0.98;;;;;;;12.64;80.01;101896.66;5022880;27;101490;-69
2024/02/20 08:25:09;;;;;;;8.43;0.98;;;;;;;12.68;79.34;101893.88;5017544;27;100445;-69
2024/02/20 08:27:37;;;;;;;4.70;1.30;;;;;;;12.69;79.69;101902.72;5022668;27;97087;-69
2024/02/20 08:30:04;;;;;;;4.25;1.00;;;;;;;12.65;78.86;101906.38;5030074;27;96888;-69
2024/02/20 08:32:30;;;;;;;7.72;1.63;;;;;;;12.57;79.79;101905.69;5022449;27;98762;-70
2024/02/20 08:34:57;;;;;;;17.17;2.38;;;;;;;12.99;78.49;101903.69;5024899;27;98825;-69
2024/02/20 08:37:23;;;;;;;26.42;2.53;;;;;;;13.41;77.20;101906.97;5026918;27;96792;-69
2024/02/20 08:39:50;;;;;;;3.75;1.35;;;;;;;13.10;77.30;101904.28;5027783;27;97028;-68
2024/02/20 08:42:17;;;;;;;15.55;1.63;;;;;;;13.23;76.94;101908.34;5025371;27;99003;-69
2024/02/20 08:44:44;;;;;;;8.10;2.60;;;;;;;13.34;76.36;101911.56;5024913;27;98835;-70
2024/02/20 08:47:11;;;;;;;5.32;1.25;;;;;;;13.23;75.97;101905.69;5025354;27;97817;-70
2024/02/20 08:49:37;;;;;;;15.75;1.42;;;;;;;13.22;76.47;101916.34;5022984;27;97146;-68
2024/02/20 08:52:04;;;;;;;5.32;1.52;;;;;;;12.19;79.80;101915.47;5023771;27;98883;-70
2024/02/20 08:54:31;;;;;;;6.78;1.45;;;;;;;11.91;82.62;101925.81;5025060;27;99393;-71
2024/02/20 08:56:57;;;;;;;8.68;1.60;;;;;;;12.21;82.87;101926.00;5020363;27;97800;-69
2024/02/20 08:59:27;;;;;;;17.40;3.95;;;;;;;11.78;84.24;101929.63;5025167;27;97720;-70
2024/02/20 09:01:55;;;;;;;15.15;2.28;;;;;;;11.54;85.90;101931.00;5022778;27;99499;-68
2024/02/20 09:04:26;;;;;;;9.10;2.00;;;;;;;11.87;85.37;101939.16;5019847;27;98847;-68
2024/02/20 09:06:53;;;;;;;19.08;2.22;;;;;;;12.27;82.79;101937.31;5020199;27;98808;-67
2024/02/20 09:09:21;;;;;;;14.52;2.30;;;;;;;12.34;81.76;101944.22;5027971;27;97114;-68
2024/02/20 09:11:49;;;;;;;22.13;4.72;;;;;;;12.60;80.31;101935.63;5024736;27;100209;-68
2024/02/20 09:14:15;;;;;;;16.38;2.97;;;;;;;12.50;79.31;101946.50;5019351;27;100000;-68
2024/02/20 09:16:41;;;;;;;14.25;2.60;;;;;;;12.46;79.35;101942.22;5028551;27;96753;-68
2024/02/20 09:19:09;;;;;;;16.88;2.50;;;;;;;12.08;80.03;101941.31;5030450;27;96931;-68
2024/02/20 09:21:36;;;;;;;13.02;2.33;;;;;;;12.01;80.68;101942.38;5026057;27;99013;-68
2024/02/20 09:24:02;;;;;;;14.63;2.55;;;;;;;12.34;80.13;101949.53;5025730;27;98756;-68
2024/02/20 09:26:30;;;;;;;22.50;2.20;;;;;;;12.30;78.31;101945.22;5028425;27;99102;-67
2024/02/20 09:28:56;;;;;;;26.80;3.72;;;;;;;12.00;79.54;101947.72;5024121;27;97364;-68
2024/02/20 09:31:23;;;;;;;18.88;2.45;;;;;;;11.65;79.18;101959.88;5016655;27;98868;-69
2024/02/20 09:33:49;;;;;;;24.77;3.38;;;;;;;11.90;78.90;101960.28;5028350;27;98836;-68
2024/02/20 09:36:17;;;;;;;20.08;3.03;;;;;;;12.23;77.08;101972.78;5025504;27;98045;-68
2024/02/20 09:38:44;;;;;;;77.07;7.53;;;;;;;12.21;76.99;101971.91;5023216;27;96794;-69
2024/02/20 09:41:12;;;;;;;43.33;4.93;;;;;;;12.02;76.50;101975.88;5028175;27;100520;-68
2024/02/20 09:43:39;;;;;;;57.63;5.15;;;;;;;12.44;75.65;101975.81;5022510;27;97622;-68
2024/02/20 09:46:08;;;;;;;17.00;3.22;;;;;;;12.66;72.51;101963.81;5024274;27;98612;-68
2024/02/20 09:48:34;;;;;;;35.50;4.20;;;;;;;12.57;72.28;101970.19;5019589;27;97118;-69
2024/02/20 09:51:02;;;;;;;25.35;2.70;;;;;;;12.53;71.67;101971.19;5019627;27;98984;-68
2024/02/20 09:53:32;;;;;;;18.65;2.83;;;;;;;12.20;72.72;101972.84;5025157;27;100562;-70
2024/02/20 09:56:00;;;;;;;21.55;3.50;;;;;;;12.04;73.40;101976.75;5020933;27;97331;-69
2024/02/20 09:58:27;;;;;;;20.67;3.15;;;;;;;12.16;72.87;101965.88;5027855;27;98492;-68
2024/02/20 10:00:55;;;;;;;15.73;2.25;;;;;;;12.36;70.85;101979.53;5018057;27;98288;-68
2024/02/20 10:03:23;;;;;;;23.65;3.50;;;;;;;12.47;70.54;101976.59;5009873;27;99900;-68
2024/02/20 10:05:49;;;;;;;12.48;2.45;;;;;;;12.90;69.11;101978.22;5006918;27;101122;-68
2024/02/20 10:08:16;;;;;;;23.20;2.97;;;;;;;12.87;67.56;101979.16;5024461;27;97884;-67
2024/02/20 10:10:48;;;;;;;15.30;2.30;;;;;;;12.52;68.50;101982.69;5028798;27;99907;-70
2024/02/20 10:13:15;;;;;;;15.73;2.80;;;;;;;12.49;68.67;101969.50;5023207;27;99947;-68
2024/02/20 10:15:41;;;;;;;19.08;3.15;;;;;;;12.15;69.38;101995.91;5013802;27;97718;-68
2024/02/20 10:18:08;;;;;;;20.80;3.20;;;;;;;12.82;68.45;101983.72;5023384;27;98250;-68
2024/02/20 10:20:34;;;;;;;23.00;2.45;;;;;;;13.25;65.09;101990.59;5024899;27;98583;-68
2024/02/20 10:23:06;;;;;;;16.67;4.00;;;;;;;13.33;63.94;101999.22;5020029;27;98345;-68
2024/02/20 10:25:33;;;;;;;18.88;3.63;;;;;;;13.32;62.30;102002.81;5023076;27;96796;-68
2024/02/20 10:28:00;;;;;;;29.27;4.40;;;;;;;12.81;62.79;101995.22;5021243;27;97457;-68
2024/02/20 10:30:27;;;;;;;23.25;3.75;;;;;;;12.74;63.44;101997.16;5020028;27;99100;-69
2024/02/20 10:32:53;;;;;;;20.67;2.78;;;;;;;12.47;63.18;101995.16;5024502;27;99251;-68
2024/02/20 10:35:20;;;;;;;21.38;3.15;;;;;;;12.90;62.33;101995.00;5023167;27;96707;-77
2024/02/20 10:37:48;;;;;;;15.43;3.25;;;;;;;12.80;62.61;101993.47;5020437;27;99271;-76
2024/02/20 10:40:15;;;;;;;25.17;4.43;;;;;;;12.64;63.54;101987.69;5028000;27;100113;-76
2024/02/20 10:42:43;;;;;;;18.35;2.72;;;;;;;12.67;63.70;101995.56;5026759;27;99226;-76
2024/02/20 10:45:12;;;;;;;24.90;4.38;;;;;;;12.95;63.02;101985.16;5028332;27;96846;-76
2024/02/20 10:47:43;;;;;;;14.80;3.00;;;;;;;12.95;61.75;101993.09;5017121;27;97071;-77
2024/02/20 10:50:11;;;;;;;21.10;3.08;;;;;;;12.97;61.93;101996.59;5020406;27;99454;-76
2024/02/20 10:52:37;;;;;;;18.83;2.90;;;;;;;13.18;61.47;101987.25;5028185;27;101682;-77
2024/02/20 10:55:06;;;;;;;19.98;2.70;;;;;;;13.80;59.22;101989.91;5024121;27;97466;-68
2024/02/20 10:57:34;;;;;;;22.17;3.65;;;;;;;14.26;57.91;101986.75;5024193;27;97315;-76
2024/02/20 11:00:03;;;;;;;25.13;2.55;;;;;;;13.93;57.45;101978.88;5025021;27;99018;-77
2024/02/20 11:02:32;;;;;;;20.35;2.63;;;;;;;13.21;60.99;101984.50;5022492;27;101149;-77
2024/02/20 11:04:59;;;;;;;47.85;3.75;;;;;;;13.56;59.46;101978.22;5028326;27;96779;-77
2024/02/20 11:07:26;;;;;;;28.13;2.92;;;;;;;12.84;61.13;101978.38;5027878;27;98379;-76
2024/02/20 11:10:05;;;;;;;21.55;3.00;;;;;;;12.55;62.72;101977.31;5026649;27;99445;-76
2024/02/20 11:12:31;;;;;;;23.15;3.20;;;;;;;13.10;61.50;101976.78;5018634;27;99119;-76
2024/02/20 11:15:06;;;;;;;18.70;3.47;;;;;;;13.50;60.69;101978.41;5025542;27;96951;-76
2024/02/20 11:17:35;;;;;;;20.88;3.35;;;;;;;13.84;59.37;101971.22;5023115;27;98856;-76
2024/02/20 11:20:10;;;;;;;14.55;3.08;;;;;;;13.68;59.59;101979.66;5019339;27;99058;-77
2024/02/20 11:22:37;;;;;;;17.70;2.58;;;;;;;13.31;60.00;101979.81;5020491;27;99526;-77